Time;durP1;ratioP1;P1;durP2;ratioP2;P2;SDS_P1;SDS_P2;PMS_P1;PMS_P2;Temp;Humidity;BMP_temperature;BMP_pressure;BME280_temperature;BME280_humidity;BME280_pressure;Samples;Min_cycle;Max_cycle;Signal;HPM_P1;HPM_P2
2020/12/29 00:01:21;;;;;;;2.90;2.03;;;;;;;;;;5117125;28;20210;-54
2020/12/29 00:03:49;;;;;;;5.95;2.65;;;;;;;;;;5117130;28;20404;-47
2020/12/29 00:06:16;;;;;;;3.42;1.73;;;;;;;;;;5116728;28;20214;-49
2020/12/29 00:08:44;;;;;;;5.03;2.20;;;;;;;;;;5134491;28;20202;-52
2020/12/29 00:11:11;;;;;;;3.72;2.28;;;;;;;;;;5136923;28;20193;-52
2020/12/29 00:13:38;;;;;;;4.50;2.15;;;;;;;;;;5119529;28;20198;-48
2020/12/29 00:16:07;;;;;;;4.03;2.55;;;;;;;;;;5136482;28;20217;-51
2020/12/29 00:18:36;;;;;;;4.15;2.28;;;;;;;;;;5137235;28;20230;-48
2020/12/29 00:21:03;;;;;;;5.28;2.38;;;;;;;;;;5136614;28;20242;-53
2020/12/29 00:23:30;;;;;;;3.17;2.40;;;;;;;;;;5136257;28;20218;-46
2020/12/29 00:25:57;;;;;;;4.65;2.65;;;;;;;;;;5137068;28;20209;-48
2020/12/29 00:28:40;;;;;;;5.95;2.40;;;;;;;;;;5136702;28;20186;-52
2020/12/29 00:31:07;;;;;;;5.70;3.30;;;;;;;;;;5136639;28;20216;-52
2020/12/29 00:33:36;;;;;;;5.28;2.88;;;;;;;;;;5137449;28;20297;-58
2020/12/29 00:36:04;;;;;;;5.07;2.70;;;;;;;;;;5136732;28;20232;-47
2020/12/29 00:38:31;;;;;;;5.40;2.63;;;;;;;;;;5136513;28;20229;-55
2020/12/29 00:40:59;;;;;;;9.05;4.30;;;;;;;;;;5136380;28;20206;-51
2020/12/29 00:43:33;;;;;;;5.50;3.10;;;;;;;;;;5137466;28;20199;-54
2020/12/29 00:46:03;;;;;;;16.83;7.88;;;;;;;;;;5132114;28;20230;-55
2020/12/29 00:48:46;;;;;;;8.13;4.03;;;;;;;;;;5136820;28;20234;-51
2020/12/29 00:51:14;;;;;;;16.48;9.05;;;;;;;;;;5135692;28;20192;-55
2020/12/29 00:53:41;;;;;;;26.17;12.20;;;;;;;;;;5136738;28;20201;-49
2020/12/29 00:56:32;;;;;;;9.75;5.53;;;;;;;;;;5135644;28;20284;-54
2020/12/29 00:58:58;;;;;;;8.80;4.35;;;;;;;;;;5135804;28;20237;-53
2020/12/29 01:01:26;;;;;;;14.40;8.88;;;;;;;;;;5136005;28;20206;-54
2020/12/29 01:06:57;;;;;;;17.30;10.20;;;;;;;;;;5117306;28;20221;-56
2020/12/29 01:09:24;;;;;;;18.60;9.80;;;;;;;;;;5116903;28;20233;-52
2020/12/29 01:11:57;;;;;;;21.95;9.80;;;;;;;;;;5126356;28;20183;-53
2020/12/29 01:14:24;;;;;;;8.88;5.40;;;;;;;;;;5137430;28;20187;-51
2020/12/29 01:16:52;;;;;;;8.32;3.90;;;;;;;;;;5137191;27;20203;-52
2020/12/29 01:19:29;;;;;;;7.13;3.58;;;;;;;;;;5135580;28;20230;-52
2020/12/29 01:21:55;;;;;;;7.47;3.38;;;;;;;;;;5135952;28;20244;-52
2020/12/29 01:24:22;;;;;;;16.88;6.07;;;;;;;;;;5136408;28;20207;-49
2020/12/29 01:27:13;;;;;;;7.68;3.92;;;;;;;;;;5135888;28;20202;-50
2020/12/29 01:29:40;;;;;;;5.00;2.97;;;;;;;;;;5134396;28;20277;-54
2020/12/29 01:32:08;;;;;;;3.10;1.75;;;;;;;;;;5135834;28;20198;-52
2020/12/29 01:34:35;;;;;;;5.72;2.67;;;;;;;;;;5136057;28;20206;-51
2020/12/29 01:37:01;;;;;;;4.10;2.25;;;;;;;;;;5134048;28;20221;-49
2020/12/29 01:39:28;;;;;;;5.47;2.30;;;;;;;;;;5135492;28;20223;-56
2020/12/29 01:41:55;;;;;;;5.13;2.25;;;;;;;;;;5135518;27;20197;-50
2020/12/29 01:44:23;;;;;;;3.88;2.10;;;;;;;;;;5135534;28;20187;-48
2020/12/29 01:47:09;;;;;;;2.92;2.35;;;;;;;;;;5136121;28;20207;-48
2020/12/29 01:49:36;;;;;;;6.75;2.30;;;;;;;;;;5135586;28;20222;-50
2020/12/29 01:52:03;;;;;;;5.10;2.58;;;;;;;;;;5135557;28;20210;-46
2020/12/29 01:54:31;;;;;;;5.95;2.17;;;;;;;;;;5135538;28;20199;-55
2020/12/29 01:56:58;;;;;;;5.30;2.67;;;;;;;;;;5135095;28;20204;-56
2020/12/29 01:59:26;;;;;;;5.70;2.88;;;;;;;;;;5135515;28;20219;-54
2020/12/29 02:02:08;;;;;;;6.50;3.17;;;;;;;;;;5136739;28;20194;-46
2020/12/29 02:04:37;;;;;;;4.90;2.17;;;;;;;;;;5135884;28;20202;-52
2020/12/29 02:07:05;;;;;;;5.80;4.05;;;;;;;;;;5135833;27;20184;-56
2020/12/29 02:09:43;;;;;;;7.05;3.50;;;;;;;;;;5135328;28;20208;-55
2020/12/29 02:12:25;;;;;;;6.10;3.38;;;;;;;;;;5136944;27;20213;-52
2020/12/29 02:17:58;;;;;;;6.70;2.33;;;;;;;;;;5136618;28;20256;-54
2020/12/29 02:20:26;;;;;;;5.45;2.95;;;;;;;;;;5135967;27;20223;-51
2020/12/29 02:22:55;;;;;;;4.05;2.42;;;;;;;;;;5136122;28;20203;-56
2020/12/29 02:25:22;;;;;;;5.07;3.22;;;;;;;;;;5135667;28;20215;-50
2020/12/29 02:27:50;;;;;;;6.32;3.17;;;;;;;;;;5135499;28;20210;-56
2020/12/29 02:30:17;;;;;;;7.28;3.25;;;;;;;;;;5134629;28;20239;-56
2020/12/29 02:32:44;;;;;;;8.50;4.05;;;;;;;;;;5136002;28;20202;-58
2020/12/29 02:35:12;;;;;;;7.55;2.70;;;;;;;;;;5138945;28;20277;-55
2020/12/29 02:37:39;;;;;;;10.77;3.55;;;;;;;;;;5139885;28;20207;-52
2020/12/29 02:40:12;;;;;;;7.75;3.40;;;;;;;;;;5139109;28;20195;-52
2020/12/29 02:42:39;;;;;;;4.75;2.65;;;;;;;;;;5130980;28;20183;-44
2020/12/29 02:45:06;;;;;;;7.10;4.47;;;;;;;;;;5139445;28;20225;-49
2020/12/29 02:47:43;;;;;;;7.40;2.80;;;;;;;;;;5139531;28;20203;-52
2020/12/29 02:50:10;;;;;;;5.55;3.80;;;;;;;;;;5139298;28;20737;-51
2020/12/29 02:52:40;;;;;;;7.72;4.55;;;;;;;;;;5138747;28;20623;-54
2020/12/29 02:55:19;;;;;;;12.43;5.13;;;;;;;;;;5139082;28;20274;-55
2020/12/29 02:57:46;;;;;;;6.97;3.08;;;;;;;;;;5139088;28;20203;-54
2020/12/29 03:00:13;;;;;;;3.22;2.25;;;;;;;;;;5139647;28;20187;-52
2020/12/29 03:02:41;;;;;;;7.05;2.60;;;;;;;;;;5139636;28;20229;-49
2020/12/29 03:05:08;;;;;;;4.82;2.42;;;;;;;;;;5139003;28;20210;-53
2020/12/29 03:07:35;;;;;;;4.10;2.85;;;;;;;;;;5139586;28;20195;-49
2020/12/29 03:10:09;;;;;;;6.00;1.80;;;;;;;;;;5140131;27;20188;-59
2020/12/29 03:12:40;;;;;;;4.15;2.35;;;;;;;;;;5140040;27;20181;-55
2020/12/29 03:15:08;;;;;;;4.93;2.08;;;;;;;;;;5139945;27;20245;-51
2020/12/29 03:17:57;;;;;;;3.67;2.42;;;;;;;;;;5139339;28;20199;-55
2020/12/29 03:20:23;;;;;;;6.05;2.50;;;;;;;;;;5116483;28;20234;-52
2020/12/29 03:22:50;;;;;;;4.88;1.70;;;;;;;;;;5117806;28;20213;-49
2020/12/29 03:25:39;;;;;;;6.28;3.00;;;;;;;;;;5102343;28;20201;-54
2020/12/29 03:28:07;;;;;;;5.15;2.47;;;;;;;;;;5127994;28;20223;-49
2020/12/29 03:30:34;;;;;;;3.72;2.20;;;;;;;;;;5138291;28;20205;-50
2020/12/29 03:33:03;;;;;;;5.82;2.78;;;;;;;;;;5138066;28;20179;-48
2020/12/29 03:35:30;;;;;;;6.00;3.28;;;;;;;;;;5137902;28;20222;-57
2020/12/29 03:37:57;;;;;;;5.28;2.33;;;;;;;;;;5138724;28;20220;-52
2020/12/29 03:40:30;;;;;;;4.50;2.75;;;;;;;;;;5138105;28;20267;-53
2020/12/29 03:42:57;;;;;;;4.70;2.90;;;;;;;;;;5138157;28;20218;-50
2020/12/29 03:45:25;;;;;;;4.65;3.05;;;;;;;;;;5136735;28;20214;-50
2020/12/29 03:47:52;;;;;;;5.50;2.90;;;;;;;;;;5137640;28;20190;-49
2020/12/29 03:50:18;;;;;;;8.93;3.20;;;;;;;;;;5137598;28;20219;-60
2020/12/29 03:53:04;;;;;;;6.60;3.88;;;;;;;;;;5138346;28;20234;-57
2020/12/29 03:55:31;;;;;;;5.00;2.42;;;;;;;;;;5138328;27;20214;-50
2020/12/29 03:57:58;;;;;;;4.63;2.95;;;;;;;;;;5138566;28;20225;-54
2020/12/29 04:00:26;;;;;;;5.90;2.70;;;;;;;;;;5137730;28;20195;-54
2020/12/29 04:02:53;;;;;;;5.05;3.33;;;;;;;;;;5138179;28;20288;-51
2020/12/29 04:05:44;;;;;;;6.57;3.83;;;;;;;;;;5138053;28;20283;-57
2020/12/29 04:08:11;;;;;;;5.13;3.40;;;;;;;;;;5137723;28;20203;-56
2020/12/29 04:10:38;;;;;;;5.43;2.95;;;;;;;;;;5136844;28;20203;-55
2020/12/29 04:13:23;;;;;;;5.13;3.25;;;;;;;;;;5117097;28;20218;-55
2020/12/29 04:15:52;;;;;;;10.57;3.80;;;;;;;;;;5131475;28;20195;-59
2020/12/29 04:18:19;;;;;;;5.68;3.40;;;;;;;;;;5137656;28;20211;-56
2020/12/29 04:20:51;;;;;;;6.50;3.33;;;;;;;;;;5137382;28;20207;-50
2020/12/29 04:23:18;;;;;;;4.88;2.88;;;;;;;;;;5137869;28;20230;-49
2020/12/29 04:25:45;;;;;;;7.32;3.72;;;;;;;;;;5138155;28;20191;-52
2020/12/29 04:28:13;;;;;;;5.88;3.47;;;;;;;;;;5137417;28;20227;-54
2020/12/29 04:30:40;;;;;;;8.98;3.00;;;;;;;;;;5138145;28;20222;-57
2020/12/29 04:33:08;;;;;;;7.50;4.03;;;;;;;;;;5137785;28;20203;-51
2020/12/29 04:36:07;;;;;;;7.95;3.78;;;;;;;;;;5137914;28;20188;-59
2020/12/29 04:38:34;;;;;;;7.30;3.38;;;;;;;;;;5137693;28;20214;-53
2020/12/29 04:41:01;;;;;;;8.30;3.22;;;;;;;;;;5137891;28;20176;-48
2020/12/29 04:43:32;;;;;;;6.45;3.28;;;;;;;;;;5137238;28;20208;-52
2020/12/29 04:46:01;;;;;;;8.05;2.63;;;;;;;;;;5117809;28;20291;-53
2020/12/29 04:48:32;;;;;;;5.80;2.72;;;;;;;;;;5116947;28;20195;-46
2020/12/29 04:51:04;;;;;;;4.97;2.60;;;;;;;;;;5137112;28;20203;-53
2020/12/29 04:53:31;;;;;;;6.07;3.78;;;;;;;;;;5137006;28;20199;-55
2020/12/29 04:56:08;;;;;;;4.65;3.03;;;;;;;;;;5137023;28;20214;-54
2020/12/29 04:59:04;;;;;;;4.30;3.00;;;;;;;;;;5136596;28;20219;-56
2020/12/29 05:01:32;;;;;;;6.03;2.83;;;;;;;;;;5136583;28;20214;-53
2020/12/29 05:04:00;;;;;;;5.30;3.20;;;;;;;;;;5136773;28;20210;-55
2020/12/29 05:06:30;;;;;;;6.32;2.50;;;;;;;;;;5136335;28;20203;-55
2020/12/29 05:08:57;;;;;;;28.02;16.80;;;;;;;;;;5136309;28;20245;-57
2020/12/29 05:11:25;;;;;;;4.50;3.33;;;;;;;;;;5136565;28;20194;-53
2020/12/29 05:16:56;;;;;;;6.03;3.00;;;;;;;;;;5134842;28;20253;-52
2020/12/29 05:19:24;;;;;;;8.45;2.60;;;;;;;;;;5136678;28;20249;-56
2020/12/29 05:21:58;;;;;;;6.00;2.80;;;;;;;;;;5136631;28;20179;-51
2020/12/29 05:24:26;;;;;;;4.05;2.85;;;;;;;;;;5135775;28;20203;-50
2020/12/29 05:26:54;;;;;;;6.85;3.33;;;;;;;;;;5121399;28;20233;-53
2020/12/29 05:29:28;;;;;;;5.20;2.88;;;;;;;;;;5115513;28;20267;-54
2020/12/29 05:31:55;;;;;;;7.65;2.88;;;;;;;;;;5129454;28;20280;-54
2020/12/29 05:34:23;;;;;;;4.97;3.08;;;;;;;;;;5135871;28;20207;-56
2020/12/29 05:36:51;;;;;;;6.38;2.65;;;;;;;;;;5136424;28;20208;-55
2020/12/29 05:39:18;;;;;;;3.72;2.97;;;;;;;;;;5136159;28;20200;-51
2020/12/29 05:42:04;;;;;;;6.35;2.60;;;;;;;;;;5136930;27;20191;-49
2020/12/29 05:44:32;;;;;;;8.60;3.78;;;;;;;;;;5135841;28;20217;-53
2020/12/29 05:47:00;;;;;;;7.38;2.95;;;;;;;;;;5135597;28;20203;-55
2020/12/29 05:49:34;;;;;;;4.82;2.90;;;;;;;;;;5136422;28;20203;-56
2020/12/29 05:52:02;;;;;;;6.53;3.28;;;;;;;;;;5133891;28;20238;-53
2020/12/29 05:54:29;;;;;;;6.00;3.95;;;;;;;;;;5136196;28;20187;-57
2020/12/29 05:57:05;;;;;;;12.35;3.30;;;;;;;;;;5135686;28;20195;-57
2020/12/29 05:59:32;;;;;;;9.27;4.65;;;;;;;;;;5135873;28;20214;-53
2020/12/29 06:01:59;;;;;;;7.00;4.43;;;;;;;;;;5135262;28;20219;-53
2020/12/29 06:04:39;;;;;;;7.43;4.18;;;;;;;;;;5135837;28;20190;-56
2020/12/29 06:07:08;;;;;;;7.30;4.28;;;;;;;;;;5134582;28;20206;-60
2020/12/29 06:09:36;;;;;;;6.45;3.90;;;;;;;;;;5137925;28;20230;-55
2020/12/29 06:12:10;;;;;;;5.97;4.38;;;;;;;;;;5139718;28;20195;-53
2020/12/29 06:14:47;;;;;;;7.82;4.45;;;;;;;;;;5139419;28;20271;-58
2020/12/29 06:17:17;;;;;;;5.95;4.00;;;;;;;;;;5140140;28;20209;-52
2020/12/29 06:19:51;;;;;;;7.25;3.97;;;;;;;;;;5139504;28;20218;-55
2020/12/29 06:22:21;;;;;;;8.00;4.72;;;;;;;;;;5139639;28;20206;-50
2020/12/29 06:24:48;;;;;;;4.68;3.22;;;;;;;;;;5139306;28;20207;-50
2020/12/29 06:27:15;;;;;;;4.50;3.78;;;;;;;;;;5139394;27;20213;-53
2020/12/29 06:30:20;;;;;;;5.75;4.22;;;;;;;;;;5140057;28;20198;-56
2020/12/29 06:32:50;;;;;;;6.40;3.88;;;;;;;;;;5146758;27;20245;-51
2020/12/29 06:35:31;;;;;;;6.97;3.80;;;;;;;;;;5155053;27;20207;-58
2020/12/29 06:41:03;;;;;;;6.32;4.57;;;;;;;;;;5127197;27;20289;-54
2020/12/29 06:43:30;;;;;;;5.82;4.30;;;;;;;;;;5120359;28;20188;-57
2020/12/29 06:49:18;;;;;;;8.13;4.00;;;;;;;;;;5132835;28;20214;-49
2020/12/29 06:51:45;;;;;;;8.48;5.03;;;;;;;;;;5139241;28;20202;-56
2020/12/29 06:54:14;;;;;;;8.95;6.50;;;;;;;;;;5139254;28;20206;-59
2020/12/29 06:56:58;;;;;;;8.90;5.18;;;;;;;;;;5138684;28;20207;-52
2020/12/29 06:59:39;;;;;;;6.20;4.13;;;;;;;;;;5118224;28;20226;-52
2020/12/29 07:02:14;;;;;;;10.32;4.60;;;;;;;;;;5118541;28;20267;-55
2020/12/29 07:04:48;;;;;;;8.88;4.70;;;;;;;;;;5118827;28;20228;-53
2020/12/29 07:07:33;;;;;;;9.25;4.70;;;;;;;;;;5118418;28;20298;-50
2020/12/29 07:10:00;;;;;;;10.15;5.15;;;;;;;;;;5118598;28;20204;-57
2020/12/29 07:12:31;;;;;;;9.52;6.30;;;;;;;;;;5099846;28;20192;-49
2020/12/29 07:15:01;;;;;;;7.63;4.70;;;;;;;;;;5117805;28;20251;-55
2020/12/29 07:17:31;;;;;;;9.13;5.13;;;;;;;;;;5118799;28;20184;-54
2020/12/29 07:23:04;;;;;;;6.75;5.05;;;;;;;;;;5118268;28;20198;-50
2020/12/29 07:25:32;;;;;;;6.35;4.60;;;;;;;;;;5117838;28;20218;-56
2020/12/29 07:28:09;;;;;;;6.05;4.63;;;;;;;;;;5118137;28;20189;-49
2020/12/29 07:30:36;;;;;;;5.78;4.10;;;;;;;;;;5117907;28;20200;-57
2020/12/29 07:33:04;;;;;;;7.07;4.72;;;;;;;;;;5118209;28;20180;-54
2020/12/29 07:35:32;;;;;;;9.00;4.88;;;;;;;;;;5116789;28;20208;-55
2020/12/29 07:37:59;;;;;;;8.70;4.60;;;;;;;;;;5117568;28;20192;-54
2020/12/29 07:40:28;;;;;;;8.15;4.80;;;;;;;;;;5128437;28;20199;-55
2020/12/29 07:42:54;;;;;;;7.70;5.10;;;;;;;;;;5119459;28;20251;-51
2020/12/29 07:45:25;;;;;;;7.40;4.18;;;;;;;;;;5117230;28;20220;-50
2020/12/29 07:47:52;;;;;;;9.00;4.75;;;;;;;;;;5115814;28;20299;-55
2020/12/29 07:50:19;;;;;;;17.58;4.55;;;;;;;;;;5117004;28;20235;-58
2020/12/29 07:53:11;;;;;;;6.78;4.15;;;;;;;;;;5117385;28;20207;-49
2020/12/29 07:55:41;;;;;;;11.48;5.18;;;;;;;;;;5101894;28;20188;-49
2020/12/29 07:58:08;;;;;;;6.07;4.22;;;;;;;;;;5118508;28;20261;-57
2020/12/29 08:00:36;;;;;;;8.30;3.92;;;;;;;;;;5128363;28;20207;-57
2020/12/29 08:03:04;;;;;;;9.75;4.30;;;;;;;;;;5117309;28;20215;-54
2020/12/29 08:05:31;;;;;;;7.30;4.00;;;;;;;;;;5128499;28;20183;-57
2020/12/29 08:08:17;;;;;;;6.80;4.30;;;;;;;;;;5137883;28;20205;-55
2020/12/29 08:10:45;;;;;;;9.55;6.30;;;;;;;;;;5127186;28;20208;-55
2020/12/29 08:13:19;;;;;;;8.57;5.05;;;;;;;;;;5137958;28;20191;-54
2020/12/29 08:18:37;;;;;;;10.52;5.68;;;;;;;;;;5136976;28;20303;-50
2020/12/29 08:21:05;;;;;;;8.13;4.55;;;;;;;;;;5142962;27;20195;-56
2020/12/29 08:23:32;;;;;;;6.32;4.13;;;;;;;;;;5158249;27;20210;-49
2020/12/29 08:26:03;;;;;;;8.13;4.45;;;;;;;;;;5137968;27;20211;-57
2020/12/29 08:28:30;;;;;;;6.05;3.75;;;;;;;;;;5147253;27;20212;-58
2020/12/29 08:31:02;;;;;;;9.15;3.60;;;;;;;;;;5151909;27;20180;-50
2020/12/29 08:33:30;;;;;;;14.55;8.05;;;;;;;;;;5126249;27;20204;-47
2020/12/29 08:35:59;;;;;;;11.38;4.03;;;;;;;;;;5152243;27;20201;-51
2020/12/29 08:41:30;;;;;;;10.00;4.45;;;;;;;;;;5157397;27;20185;-49
2020/12/29 08:44:01;;;;;;;10.38;4.47;;;;;;;;;;5156536;27;20322;-51
2020/12/29 08:46:34;;;;;;;12.00;5.82;;;;;;;;;;5137078;27;20241;-51
2020/12/29 08:49:03;;;;;;;10.07;5.32;;;;;;;;;;5150202;27;20229;-64
2020/12/29 08:51:31;;;;;;;18.77;8.35;;;;;;;;;;5157273;27;20206;-59
2020/12/29 08:54:21;;;;;;;9.75;6.38;;;;;;;;;;5157877;27;20203;-48
2020/12/29 08:56:48;;;;;;;10.88;6.13;;;;;;;;;;5142084;27;20219;-49
2020/12/29 08:59:15;;;;;;;8.45;5.45;;;;;;;;;;5157146;27;20230;-55
2020/12/29 09:02:09;;;;;;;13.05;6.88;;;;;;;;;;5157193;27;20344;-54
2020/12/29 09:04:40;;;;;;;13.70;6.03;;;;;;;;;;5156484;27;20216;-54
2020/12/29 09:07:09;;;;;;;13.93;5.45;;;;;;;;;;5156875;27;20241;-56
2020/12/29 09:10:03;;;;;;;12.05;5.38;;;;;;;;;;5156077;27;20218;-60
2020/12/29 09:12:31;;;;;;;9.70;5.18;;;;;;;;;;5155770;27;20234;-57
2020/12/29 09:14:58;;;;;;;9.60;5.13;;;;;;;;;;5156141;27;20199;-53
2020/12/29 09:17:27;;;;;;;7.90;4.65;;;;;;;;;;5156546;27;20195;-57
2020/12/29 09:20:07;;;;;;;12.88;6.15;;;;;;;;;;5142864;27;20222;-55
2020/12/29 09:22:35;;;;;;;10.60;7.05;;;;;;;;;;5135319;28;20194;-55
2020/12/29 09:25:03;;;;;;;10.32;5.38;;;;;;;;;;5135978;28;20175;-59
2020/12/29 09:27:31;;;;;;;9.82;4.80;;;;;;;;;;5135189;27;20190;-55
2020/12/29 09:29:57;;;;;;;9.57;5.90;;;;;;;;;;5156203;27;20212;-53
2020/12/29 09:32:41;;;;;;;9.85;6.03;;;;;;;;;;5155565;27;20194;-57
2020/12/29 09:37:51;;;;;;;8.32;5.70;;;;;;;;;;5119989;28;20210;-55
2020/12/29 09:40:18;;;;;;;9.48;5.55;;;;;;;;;;5134490;28;20245;-56
2020/12/29 09:42:44;;;;;;;8.77;4.88;;;;;;;;;;5134120;28;20257;-57
2020/12/29 09:45:24;;;;;;;14.77;6.50;;;;;;;;;;5135271;28;20180;-54
2020/12/29 09:47:50;;;;;;;9.75;5.15;;;;;;;;;;5135376;28;20194;-56
2020/12/29 09:50:17;;;;;;;12.25;6.88;;;;;;;;;;5135033;28;20191;-58
2020/12/29 09:52:44;;;;;;;9.90;6.25;;;;;;;;;;5135333;28;20217;-52
2020/12/29 09:55:12;;;;;;;11.68;5.57;;;;;;;;;;5135166;28;20590;-58
2020/12/29 09:57:41;;;;;;;9.75;5.32;;;;;;;;;;5135235;28;20218;-55
2020/12/29 10:00:18;;;;;;;9.43;5.32;;;;;;;;;;5134521;28;20211;-51
2020/12/29 10:02:46;;;;;;;12.88;6.15;;;;;;;;;;5134939;28;20199;-50
2020/12/29 10:05:13;;;;;;;8.98;4.43;;;;;;;;;;5136337;28;20240;-55
2020/12/29 10:07:56;;;;;;;7.53;4.47;;;;;;;;;;5145877;27;20218;-59
2020/12/29 10:10:24;;;;;;;8.13;5.15;;;;;;;;;;5135623;28;20208;-52
2020/12/29 10:12:51;;;;;;;9.38;5.10;;;;;;;;;;5135311;28;20207;-57
2020/12/29 10:15:49;;;;;;;8.48;5.43;;;;;;;;;;5135399;28;20196;-57
2020/12/29 10:18:15;;;;;;;12.20;6.35;;;;;;;;;;5135439;28;20208;-53
2020/12/29 10:20:42;;;;;;;6.40;3.70;;;;;;;;;;5134822;28;20249;-55
2020/12/29 10:23:41;;;;;;;5.70;4.40;;;;;;;;;;5134052;28;20225;-56
2020/12/29 10:26:09;;;;;;;7.70;4.13;;;;;;;;;;5134504;28;20194;-56
2020/12/29 10:28:36;;;;;;;9.20;3.65;;;;;;;;;;5132658;28;20207;-53
2020/12/29 10:31:03;;;;;;;10.30;4.55;;;;;;;;;;5132987;28;20203;-55
2020/12/29 10:33:31;;;;;;;7.97;3.72;;;;;;;;;;5134145;28;20234;-53
2020/12/29 10:36:05;;;;;;;7.43;4.00;;;;;;;;;;5134696;28;20173;-52
2020/12/29 10:38:32;;;;;;;9.82;3.63;;;;;;;;;;5134585;28;20209;-56
2020/12/29 10:40:59;;;;;;;9.45;5.85;;;;;;;;;;5134662;28;20188;-54
2020/12/29 10:43:30;;;;;;;11.20;4.30;;;;;;;;;;5133886;28;20184;-54
2020/12/29 10:48:43;;;;;;;13.05;4.85;;;;;;;;;;5133962;28;20192;-54
2020/12/29 10:51:11;;;;;;;25.02;6.07;;;;;;;;;;5134717;28;20215;-55
2020/12/29 10:53:37;;;;;;;27.63;13.05;;;;;;;;;;5133858;28;20283;-55
2020/12/29 10:56:14;;;;;;;11.23;5.32;;;;;;;;;;5137930;28;20208;-56
2020/12/29 10:58:44;;;;;;;10.50;5.25;;;;;;;;;;5138336;28;20234;-55
2020/12/29 11:01:17;;;;;;;9.48;5.85;;;;;;;;;;5137805;28;20345;-55
2020/12/29 11:04:26;;;;;;;12.35;7.93;;;;;;;;;;5138517;28;20247;-58
2020/12/29 11:06:54;;;;;;;10.15;5.85;;;;;;;;;;5137794;28;20223;-54
2020/12/29 11:09:22;;;;;;;9.27;6.30;;;;;;;;;;5138324;28;20208;-58
2020/12/29 11:11:58;;;;;;;13.30;7.70;;;;;;;;;;5137789;28;20208;-55
2020/12/29 11:14:29;;;;;;;7.40;5.50;;;;;;;;;;5137762;28;20191;-53
2020/12/29 11:17:04;;;;;;;9.25;5.75;;;;;;;;;;5137789;28;20254;-55
2020/12/29 11:19:33;;;;;;;11.60;5.63;;;;;;;;;;5135248;28;20226;-52
2020/12/29 11:22:01;;;;;;;10.30;5.88;;;;;;;;;;5138278;28;20220;-55
2020/12/29 11:24:46;;;;;;;8.88;6.00;;;;;;;;;;5135566;28;20212;-60
2020/12/29 11:27:14;;;;;;;9.30;5.80;;;;;;;;;;5132979;28;20365;-60
2020/12/29 11:29:45;;;;;;;7.50;5.88;;;;;;;;;;5137188;28;20198;-49
2020/12/29 11:32:12;;;;;;;9.48;5.85;;;;;;;;;;5136242;28;20202;-55
2020/12/29 11:34:39;;;;;;;16.65;7.03;;;;;;;;;;5122124;28;20205;-55
2020/12/29 11:37:16;;;;;;;8.25;5.78;;;;;;;;;;5138094;28;20206;-54
2020/12/29 11:39:47;;;;;;;9.68;6.47;;;;;;;;;;5129302;28;20287;-56
2020/12/29 11:42:15;;;;;;;8.80;6.43;;;;;;;;;;5136823;28;20219;-54
2020/12/29 11:44:43;;;;;;;13.05;6.80;;;;;;;;;;5134021;28;20270;-56
2020/12/29 11:47:11;;;;;;;9.63;6.78;;;;;;;;;;5131486;28;20188;-58
2020/12/29 11:49:38;;;;;;;10.27;6.95;;;;;;;;;;5146314;27;20220;-55
2020/12/29 11:52:14;;;;;;;8.48;6.30;;;;;;;;;;5155123;27;20242;-56
2020/12/29 11:54:50;;;;;;;9.80;6.93;;;;;;;;;;5127153;28;20215;-56
2020/12/29 11:57:18;;;;;;;10.55;7.95;;;;;;;;;;5115908;28;20285;-57
2020/12/29 11:59:45;;;;;;;9.60;7.00;;;;;;;;;;5115674;28;20216;-51
2020/12/29 12:02:12;;;;;;;12.95;8.43;;;;;;;;;;5116223;28;20202;-53
2020/12/29 12:04:39;;;;;;;10.15;6.53;;;;;;;;;;5115988;28;20192;-54
2020/12/29 12:07:10;;;;;;;9.80;7.05;;;;;;;;;;5115893;28;20194;-51
2020/12/29 12:09:42;;;;;;;8.65;5.75;;;;;;;;;;5117283;28;20216;-55
2020/12/29 12:12:10;;;;;;;12.25;7.57;;;;;;;;;;5131776;28;20227;-53
2020/12/29 12:14:36;;;;;;;11.63;6.10;;;;;;;;;;5136201;28;20194;-52
2020/12/29 12:17:39;;;;;;;11.73;6.55;;;;;;;;;;5128560;28;20307;-58
2020/12/29 12:20:19;;;;;;;12.55;7.65;;;;;;;;;;5130735;28;20236;-54
2020/12/29 12:22:47;;;;;;;8.25;5.40;;;;;;;;;;5136609;28;20215;-57
2020/12/29 12:25:14;;;;;;;12.40;6.43;;;;;;;;;;5135644;28;20297;-59
2020/12/29 12:27:43;;;;;;;9.98;5.82;;;;;;;;;;5134379;28;20199;-54
2020/12/29 12:30:10;;;;;;;7.65;4.97;;;;;;;;;;5134017;27;20215;-54
2020/12/29 12:32:37;;;;;;;12.40;5.38;;;;;;;;;;5134261;28;20195;-53
2020/12/29 12:35:04;;;;;;;10.05;5.60;;;;;;;;;;5134527;28;20217;-57
2020/12/29 12:37:33;;;;;;;8.10;5.30;;;;;;;;;;5138343;27;20202;-58
2020/12/29 12:40:00;;;;;;;6.47;4.32;;;;;;;;;;5140914;27;20211;-54
2020/12/29 12:42:29;;;;;;;7.88;5.00;;;;;;;;;;5147394;27;20203;-53
2020/12/29 12:45:00;;;;;;;6.63;4.20;;;;;;;;;;5130951;28;20207;-54
2020/12/29 12:47:28;;;;;;;9.98;4.80;;;;;;;;;;5119014;28;20203;-59
2020/12/29 12:49:57;;;;;;;9.02;4.50;;;;;;;;;;5140158;27;20191;-54
2020/12/29 12:52:24;;;;;;;7.50;4.65;;;;;;;;;;5138332;27;20189;-57
2020/12/29 12:54:51;;;;;;;8.25;4.70;;;;;;;;;;5140105;27;20285;-55
2020/12/29 12:57:19;;;;;;;10.70;4.88;;;;;;;;;;5146645;27;20203;-54
2020/12/29 12:59:46;;;;;;;9.63;5.25;;;;;;;;;;5155781;27;20231;-52
2020/12/29 13:02:13;;;;;;;8.15;4.82;;;;;;;;;;5147473;27;20192;-59
2020/12/29 13:04:51;;;;;;;8.32;4.28;;;;;;;;;;5136064;28;20218;-54
2020/12/29 13:07:19;;;;;;;6.10;3.88;;;;;;;;;;5135726;28;20217;-52
2020/12/29 13:09:46;;;;;;;10.35;4.25;;;;;;;;;;5148326;27;20230;-52
2020/12/29 13:12:26;;;;;;;6.97;4.28;;;;;;;;;;5155459;27;20191;-49
2020/12/29 13:14:52;;;;;;;6.95;4.60;;;;;;;;;;5155979;27;20229;-57
2020/12/29 13:17:21;;;;;;;8.02;4.78;;;;;;;;;;5155467;27;20248;-55
2020/12/29 13:19:59;;;;;;;5.68;4.05;;;;;;;;;;5138056;27;20228;-58
2020/12/29 13:22:30;;;;;;;5.35;3.80;;;;;;;;;;5135101;28;20205;-56
2020/12/29 13:24:57;;;;;;;8.57;3.90;;;;;;;;;;5135929;28;20196;-53
2020/12/29 13:27:32;;;;;;;11.02;4.53;;;;;;;;;;5135005;28;20207;-58
2020/12/29 13:30:07;;;;;;;10.85;3.95;;;;;;;;;;5134976;28;20206;-59
2020/12/29 13:32:36;;;;;;;9.35;5.38;;;;;;;;;;5135017;28;20207;-58
2020/12/29 13:35:10;;;;;;;11.35;4.85;;;;;;;;;;5134448;28;20287;-51
2020/12/29 13:37:38;;;;;;;6.25;3.80;;;;;;;;;;5135498;28;20259;-52
2020/12/29 13:40:05;;;;;;;8.73;5.20;;;;;;;;;;5134765;28;20234;-59
2020/12/29 13:42:45;;;;;;;6.07;3.70;;;;;;;;;;5135316;28;20207;-55
2020/12/29 13:45:12;;;;;;;9.70;6.30;;;;;;;;;;5116479;28;20198;-54
2020/12/29 13:47:41;;;;;;;6.97;3.95;;;;;;;;;;5134637;28;20259;-56
2020/12/29 13:50:21;;;;;;;11.10;4.57;;;;;;;;;;5133857;28;20189;-59
2020/12/29 13:52:48;;;;;;;7.32;4.40;;;;;;;;;;5134226;28;20202;-49
2020/12/29 13:55:15;;;;;;;8.63;4.70;;;;;;;;;;5133579;28;20200;-58
2020/12/29 13:57:51;;;;;;;7.40;4.93;;;;;;;;;;5122754;28;20267;-55
2020/12/29 14:00:19;;;;;;;10.02;5.28;;;;;;;;;;5134118;28;20298;-48
2020/12/29 14:02:46;;;;;;;10.55;4.03;;;;;;;;;;5135409;28;20202;-54
2020/12/29 14:05:17;;;;;;;6.90;4.95;;;;;;;;;;5134143;28;20185;-58
2020/12/29 14:07:44;;;;;;;13.10;5.20;;;;;;;;;;5136618;28;20269;-55
2020/12/29 14:10:12;;;;;;;7.97;3.85;;;;;;;;;;5134992;28;20196;-52
2020/12/29 14:12:40;;;;;;;10.15;5.65;;;;;;;;;;5133883;28;20425;-59
2020/12/29 14:15:07;;;;;;;8.90;4.35;;;;;;;;;;5133356;28;20184;-50
2020/12/29 14:17:34;;;;;;;8.30;4.07;;;;;;;;;;5134342;28;20196;-52
2020/12/29 14:20:02;;;;;;;8.10;5.35;;;;;;;;;;5134720;28;20232;-54
2020/12/29 14:22:29;;;;;;;6.65;4.22;;;;;;;;;;5134729;28;20195;-59
2020/12/29 14:25:00;;;;;;;11.25;6.80;;;;;;;;;;5134740;28;20222;-57
2020/12/29 14:27:27;;;;;;;9.32;5.05;;;;;;;;;;5125772;28;20220;-51
2020/12/29 14:29:54;;;;;;;6.47;3.83;;;;;;;;;;5129885;28;20191;-49
2020/12/29 14:32:24;;;;;;;9.48;4.40;;;;;;;;;;5138135;28;20186;-49
2020/12/29 14:34:51;;;;;;;14.00;4.72;;;;;;;;;;5137903;28;20302;-52
2020/12/29 14:37:18;;;;;;;7.22;4.32;;;;;;;;;;5128563;28;20208;-54
2020/12/29 14:39:56;;;;;;;11.35;6.50;;;;;;;;;;5132111;28;20235;-57
2020/12/29 14:42:23;;;;;;;8.80;5.25;;;;;;;;;;5136546;28;20196;-58
2020/12/29 14:45:01;;;;;;;7.00;4.25;;;;;;;;;;5137366;28;20218;-55
2020/12/29 14:47:57;;;;;;;8.20;4.10;;;;;;;;;;5131032;28;20246;-59
2020/12/29 14:50:24;;;;;;;11.55;5.65;;;;;;;;;;5131809;28;20196;-52
2020/12/29 14:52:55;;;;;;;10.40;5.07;;;;;;;;;;5137508;28;20190;-58
2020/12/29 14:55:25;;;;;;;10.77;5.38;;;;;;;;;;5128768;28;20318;-53
2020/12/29 14:57:54;;;;;;;7.32;4.30;;;;;;;;;;5117332;28;20192;-51
2020/12/29 15:00:22;;;;;;;9.05;4.30;;;;;;;;;;5124223;28;20227;-53
2020/12/29 15:02:50;;;;;;;15.82;5.60;;;;;;;;;;5126121;28;20198;-57
2020/12/29 15:05:17;;;;;;;9.05;6.25;;;;;;;;;;5136226;28;20207;-54
2020/12/29 15:07:50;;;;;;;12.68;6.03;;;;;;;;;;5129312;28;20216;-55
2020/12/29 15:10:17;;;;;;;10.55;5.13;;;;;;;;;;5115930;28;20196;-58
2020/12/29 15:12:45;;;;;;;13.38;5.15;;;;;;;;;;5123760;28;20197;-57
2020/12/29 15:15:12;;;;;;;13.75;6.15;;;;;;;;;;5132668;28;20204;-53
2020/12/29 15:17:43;;;;;;;9.80;5.75;;;;;;;;;;5134167;28;20279;-56
2020/12/29 15:20:17;;;;;;;9.48;6.40;;;;;;;;;;5122941;28;20262;-55
2020/12/29 15:22:45;;;;;;;14.32;5.70;;;;;;;;;;5099766;28;20204;-56
2020/12/29 15:25:21;;;;;;;10.85;5.78;;;;;;;;;;5125749;28;20406;-53
2020/12/29 15:27:54;;;;;;;14.38;5.93;;;;;;;;;;5136170;28;20232;-58
2020/12/29 15:33:42;;;;;;;12.77;5.53;;;;;;;;;;5125085;28;20209;-55
2020/12/29 15:36:11;;;;;;;10.85;6.03;;;;;;;;;;5133106;28;20280;-67